sensor_id;sensor_type;location;lat;lon;timestamp;P1;durP1;ratioP1;P2;durP2;ratioP2
51987;SDS011;38003;52.012;4.346;2023-03-21T00:00:35;807.10;;;772.57;;
51987;SDS011;38003;52.012;4.346;2023-03-21T00:03:05;803.30;;;769.43;;
51987;SDS011;38003;52.012;4.346;2023-03-21T00:05:34;816.50;;;781.30;;
51987;SDS011;38003;52.012;4.346;2023-03-21T00:08:07;824.33;;;788.13;;
51987;SDS011;38003;52.012;4.346;2023-03-21T00:10:35;800.80;;;767.27;;
51987;SDS011;38003;52.012;4.346;2023-03-21T00:13:09;796.80;;;763.23;;
51987;SDS011;38003;52.012;4.346;2023-03-21T00:16:02;800.40;;;766.87;;
51987;SDS011;38003;52.012;4.346;2023-03-21T00:18:37;795.00;;;762.23;;
51987;SDS011;38003;52.012;4.346;2023-03-21T00:21:07;808.97;;;774.47;;
51987;SDS011;38003;52.012;4.346;2023-03-21T00:23:57;786.77;;;754.70;;
51987;SDS011;38003;52.012;4.346;2023-03-21T00:26:26;794.13;;;761.57;;
51987;SDS011;38003;52.012;4.346;2023-03-21T00:28:54;783.90;;;751.83;;
51987;SDS011;38003;52.012;4.346;2023-03-21T00:31:22;766.70;;;735.87;;
51987;SDS011;38003;52.012;4.346;2023-03-21T00:33:51;788.90;;;756.80;;
51987;SDS011;38003;52.012;4.346;2023-03-21T00:36:20;786.80;;;754.50;;
51987;SDS011;38003;52.012;4.346;2023-03-21T00:38:51;781.23;;;749.33;;
51987;SDS011;38003;52.012;4.346;2023-03-21T00:41:19;793.50;;;760.57;;
51987;SDS011;38003;52.012;4.346;2023-03-21T00:44:07;794.57;;;761.30;;
51987;SDS011;38003;52.012;4.346;2023-03-21T00:46:35;797.23;;;763.93;;
51987;SDS011;38003;52.012;4.346;2023-03-21T00:49:24;794.83;;;762.27;;
51987;SDS011;38003;52.012;4.346;2023-03-21T00:51:52;797.43;;;763.97;;
51987;SDS011;38003;52.012;4.346;2023-03-21T00:54:30;802.00;;;768.57;;
51987;SDS011;38003;52.012;4.346;2023-03-21T00:56:58;818.10;;;783.67;;
51987;SDS011;38003;52.012;4.346;2023-03-21T00:59:28;811.30;;;777.73;;
51987;SDS011;38003;52.012;4.346;2023-03-21T01:01:56;807.53;;;773.93;;
51987;SDS011;38003;52.012;4.346;2023-03-21T01:04:27;801.90;;;769.27;;
51987;SDS011;38003;52.012;4.346;2023-03-21T01:06:55;780.97;;;749.90;;
51987;SDS011;38003;52.012;4.346;2023-03-21T01:09:23;788.17;;;756.17;;
51987;SDS011;38003;52.012;4.346;2023-03-21T01:11:52;772.93;;;742.17;;
51987;SDS011;38003;52.012;4.346;2023-03-21T01:14:21;782.10;;;750.67;;
51987;SDS011;38003;52.012;4.346;2023-03-21T01:16:50;785.57;;;754.33;;
51987;SDS011;38003;52.012;4.346;2023-03-21T01:19:19;771.43;;;740.67;;
51987;SDS011;38003;52.012;4.346;2023-03-21T01:22:04;770.10;;;740.00;;
51987;SDS011;38003;52.012;4.346;2023-03-21T01:24:32;732.90;;;704.97;;
51987;SDS011;38003;52.012;4.346;2023-03-21T01:27:08;718.83;;;691.93;;
51987;SDS011;38003;52.012;4.346;2023-03-21T01:29:36;721.67;;;694.53;;
51987;SDS011;38003;52.012;4.346;2023-03-21T01:32:05;731.70;;;704.10;;
51987;SDS011;38003;52.012;4.346;2023-03-21T01:34:33;703.83;;;677.23;;
51987;SDS011;38003;52.012;4.346;2023-03-21T01:37:01;682.20;;;656.97;;
51987;SDS011;38003;52.012;4.346;2023-03-21T01:39:31;644.50;;;621.13;;
51987;SDS011;38003;52.012;4.346;2023-03-21T01:42:00;652.97;;;628.93;;
51987;SDS011;38003;52.012;4.346;2023-03-21T01:44:28;660.60;;;636.53;;
51987;SDS011;38003;52.012;4.346;2023-03-21T01:46:57;663.70;;;638.63;;
51987;SDS011;38003;52.012;4.346;2023-03-21T01:49:36;606.13;;;584.23;;
51987;SDS011;38003;52.012;4.346;2023-03-21T01:52:06;627.97;;;605.40;;
51987;SDS011;38003;52.012;4.346;2023-03-21T01:54:43;612.40;;;589.93;;
51987;SDS011;38003;52.012;4.346;2023-03-21T01:57:15;614.23;;;592.03;;
51987;SDS011;38003;52.012;4.346;2023-03-21T01:59:45;604.67;;;583.13;;
51987;SDS011;38003;52.012;4.346;2023-03-21T02:02:16;616.50;;;594.33;;
51987;SDS011;38003;52.012;4.346;2023-03-21T02:04:48;598.30;;;576.63;;
51987;SDS011;38003;52.012;4.346;2023-03-21T02:07:23;558.03;;;538.27;;
51987;SDS011;38003;52.012;4.346;2023-03-21T02:09:55;505.73;;;487.73;;
51987;SDS011;38003;52.012;4.346;2023-03-21T02:12:25;480.27;;;463.00;;
51987;SDS011;38003;52.012;4.346;2023-03-21T02:14:54;549.20;;;529.77;;
51987;SDS011;38003;52.012;4.346;2023-03-21T02:17:23;554.63;;;534.40;;
51987;SDS011;38003;52.012;4.346;2023-03-21T02:20:15;527.53;;;508.77;;
51987;SDS011;38003;52.012;4.346;2023-03-21T02:28:25;513.33;;;494.73;;
51987;SDS011;38003;52.012;4.346;2023-03-21T02:31:01;532.90;;;514.07;;
51987;SDS011;38003;52.012;4.346;2023-03-21T02:33:41;502.23;;;483.87;;
51987;SDS011;38003;52.012;4.346;2023-03-21T02:36:15;494.40;;;475.73;;
51987;SDS011;38003;52.012;4.346;2023-03-21T02:38:46;488.33;;;470.80;;
51987;SDS011;38003;52.012;4.346;2023-03-21T02:41:18;510.30;;;491.70;;
51987;SDS011;38003;52.012;4.346;2023-03-21T02:43:53;517.43;;;498.57;;
51987;SDS011;38003;52.012;4.346;2023-03-21T02:46:25;474.40;;;456.97;;
51987;SDS011;38003;52.012;4.346;2023-03-21T02:49:08;473.73;;;456.53;;
51987;SDS011;38003;52.012;4.346;2023-03-21T02:51:38;462.27;;;444.87;;
51987;SDS011;38003;52.012;4.346;2023-03-21T02:54:09;450.93;;;433.67;;
51987;SDS011;38003;52.012;4.346;2023-03-21T02:56:58;425.37;;;409.80;;
51987;SDS011;38003;52.012;4.346;2023-03-21T02:59:28;428.57;;;412.63;;
51987;SDS011;38003;52.012;4.346;2023-03-21T03:02:00;399.63;;;384.37;;
51987;SDS011;38003;52.012;4.346;2023-03-21T03:04:29;359.73;;;345.77;;
51987;SDS011;38003;52.012;4.346;2023-03-21T03:07:16;378.50;;;363.57;;
51987;SDS011;38003;52.012;4.346;2023-03-21T03:09:58;402.77;;;387.40;;
51987;SDS011;38003;52.012;4.346;2023-03-21T03:12:30;406.73;;;391.40;;
51987;SDS011;38003;52.012;4.346;2023-03-21T03:15:03;370.93;;;356.67;;
51987;SDS011;38003;52.012;4.346;2023-03-21T03:17:35;333.90;;;321.17;;
51987;SDS011;38003;52.012;4.346;2023-03-21T03:20:12;336.27;;;322.47;;
51987;SDS011;38003;52.012;4.346;2023-03-21T03:22:45;327.87;;;314.70;;
51987;SDS011;38003;52.012;4.346;2023-03-21T03:25:17;320.63;;;308.17;;
51987;SDS011;38003;52.012;4.346;2023-03-21T03:28:05;297.43;;;285.87;;
51987;SDS011;38003;52.012;4.346;2023-03-21T03:30:34;253.10;;;242.73;;
51987;SDS011;38003;52.012;4.346;2023-03-21T03:33:16;262.90;;;252.20;;
51987;SDS011;38003;52.012;4.346;2023-03-21T03:35:48;261.70;;;250.57;;
51987;SDS011;38003;52.012;4.346;2023-03-21T03:38:30;246.27;;;235.97;;
51987;SDS011;38003;52.012;4.346;2023-03-21T03:41:01;239.53;;;229.67;;
51987;SDS011;38003;52.012;4.346;2023-03-21T03:43:33;203.43;;;194.40;;
51987;SDS011;38003;52.012;4.346;2023-03-21T03:46:04;199.80;;;190.90;;
51987;SDS011;38003;52.012;4.346;2023-03-21T03:48:39;185.47;;;176.73;;
51987;SDS011;38003;52.012;4.346;2023-03-21T03:51:13;169.67;;;161.77;;
51987;SDS011;38003;52.012;4.346;2023-03-21T03:53:42;149.50;;;142.23;;
51987;SDS011;38003;52.012;4.346;2023-03-21T03:56:14;147.30;;;139.70;;
51987;SDS011;38003;52.012;4.346;2023-03-21T03:58:42;143.37;;;136.23;;
51987;SDS011;38003;52.012;4.346;2023-03-21T04:01:11;158.23;;;150.63;;
51987;SDS011;38003;52.012;4.346;2023-03-21T04:03:40;151.63;;;144.23;;
51987;SDS011;38003;52.012;4.346;2023-03-21T04:06:30;137.37;;;130.00;;
51987;SDS011;38003;52.012;4.346;2023-03-21T04:08:58;122.03;;;115.40;;
51987;SDS011;38003;52.012;4.346;2023-03-21T04:11:32;133.63;;;127.27;;
51987;SDS011;38003;52.012;4.346;2023-03-21T04:14:00;134.23;;;127.50;;
51987;SDS011;38003;52.012;4.346;2023-03-21T04:16:28;125.80;;;119.47;;
51987;SDS011;38003;52.012;4.346;2023-03-21T04:19:00;130.00;;;123.50;;
51987;SDS011;38003;52.012;4.346;2023-03-21T04:21:29;122.07;;;115.70;;
51987;SDS011;38003;52.012;4.346;2023-03-21T04:23:57;115.20;;;109.03;;
51987;SDS011;38003;52.012;4.346;2023-03-21T04:26:26;109.87;;;103.83;;
51987;SDS011;38003;52.012;4.346;2023-03-21T04:28:59;117.47;;;111.50;;
51987;SDS011;38003;52.012;4.346;2023-03-21T04:31:28;114.97;;;109.07;;
51987;SDS011;38003;52.012;4.346;2023-03-21T04:33:59;110.60;;;104.83;;
51987;SDS011;38003;52.012;4.346;2023-03-21T04:36:27;115.63;;;109.63;;
51987;SDS011;38003;52.012;4.346;2023-03-21T04:39:04;97.43;;;92.00;;
51987;SDS011;38003;52.012;4.346;2023-03-21T04:41:37;79.73;;;74.97;;
51987;SDS011;38003;52.012;4.346;2023-03-21T04:44:08;82.80;;;78.00;;
51987;SDS011;38003;52.012;4.346;2023-03-21T04:46:37;83.67;;;78.70;;
51987;SDS011;38003;52.012;4.346;2023-03-21T04:49:05;80.17;;;75.47;;
51987;SDS011;38003;52.012;4.346;2023-03-21T04:51:34;71.07;;;66.53;;
51987;SDS011;38003;52.012;4.346;2023-03-21T04:54:02;67.30;;;63.10;;
51987;SDS011;38003;52.012;4.346;2023-03-21T04:56:31;74.23;;;69.63;;
51987;SDS011;38003;52.012;4.346;2023-03-21T04:59:02;69.83;;;65.80;;
51987;SDS011;38003;52.012;4.346;2023-03-21T05:01:32;62.40;;;58.27;;
51987;SDS011;38003;52.012;4.346;2023-03-21T05:04:00;59.57;;;55.27;;
51987;SDS011;38003;52.012;4.346;2023-03-21T05:06:29;54.33;;;50.70;;
51987;SDS011;38003;52.012;4.346;2023-03-21T05:08:58;58.27;;;54.30;;
51987;SDS011;38003;52.012;4.346;2023-03-21T05:11:27;51.30;;;47.83;;
51987;SDS011;38003;52.012;4.346;2023-03-21T05:13:56;53.13;;;49.27;;
51987;SDS011;38003;52.012;4.346;2023-03-21T05:16:24;54.37;;;50.87;;
51987;SDS011;38003;52.012;4.346;2023-03-21T05:18:57;51.30;;;47.83;;
51987;SDS011;38003;52.012;4.346;2023-03-21T05:21:30;48.00;;;44.60;;
51987;SDS011;38003;52.012;4.346;2023-03-21T05:24:07;55.37;;;51.67;;
51987;SDS011;38003;52.012;4.346;2023-03-21T05:26:37;47.70;;;44.43;;
51987;SDS011;38003;52.012;4.346;2023-03-21T05:29:05;38.57;;;35.70;;
51987;SDS011;38003;52.012;4.346;2023-03-21T05:31:33;41.17;;;37.97;;
51987;SDS011;38003;52.012;4.346;2023-03-21T05:34:03;47.63;;;44.40;;
51987;SDS011;38003;52.012;4.346;2023-03-21T05:36:31;38.77;;;35.57;;
51987;SDS011;38003;52.012;4.346;2023-03-21T05:39:01;40.47;;;37.40;;
51987;SDS011;38003;52.012;4.346;2023-03-21T05:41:29;39.43;;;36.30;;
51987;SDS011;38003;52.012;4.346;2023-03-21T05:43:57;38.03;;;34.70;;
51987;SDS011;38003;52.012;4.346;2023-03-21T05:46:26;41.77;;;38.77;;
51987;SDS011;38003;52.012;4.346;2023-03-21T05:48:54;40.47;;;37.27;;
51987;SDS011;38003;52.012;4.346;2023-03-21T05:51:23;44.47;;;41.37;;
51987;SDS011;38003;52.012;4.346;2023-03-21T05:53:52;42.87;;;39.67;;
51987;SDS011;38003;52.012;4.346;2023-03-21T05:56:20;42.17;;;39.20;;
51987;SDS011;38003;52.012;4.346;2023-03-21T05:58:48;43.13;;;39.77;;
51987;SDS011;38003;52.012;4.346;2023-03-21T06:01:16;40.97;;;37.87;;
51987;SDS011;38003;52.012;4.346;2023-03-21T06:03:45;42.77;;;39.60;;
51987;SDS011;38003;52.012;4.346;2023-03-21T06:06:13;43.53;;;39.90;;
51987;SDS011;38003;52.012;4.346;2023-03-21T06:08:42;44.10;;;40.77;;
51987;SDS011;38003;52.012;4.346;2023-03-21T06:11:13;42.57;;;39.43;;
51987;SDS011;38003;52.012;4.346;2023-03-21T06:13:46;44.43;;;41.47;;
51987;SDS011;38003;52.012;4.346;2023-03-21T06:16:14;44.17;;;41.00;;
51987;SDS011;38003;52.012;4.346;2023-03-21T06:18:42;43.53;;;40.20;;
51987;SDS011;38003;52.012;4.346;2023-03-21T06:21:11;50.77;;;47.27;;
51987;SDS011;38003;52.012;4.346;2023-03-21T06:23:39;58.97;;;55.23;;
51987;SDS011;38003;52.012;4.346;2023-03-21T06:26:09;61.87;;;57.63;;
51987;SDS011;38003;52.012;4.346;2023-03-21T06:28:37;68.63;;;64.27;;
51987;SDS011;38003;52.012;4.346;2023-03-21T06:31:05;63.13;;;59.33;;
51987;SDS011;38003;52.012;4.346;2023-03-21T06:33:33;66.87;;;62.07;;
51987;SDS011;38003;52.012;4.346;2023-03-21T06:36:02;75.77;;;71.33;;
51987;SDS011;38003;52.012;4.346;2023-03-21T06:38:30;72.60;;;68.33;;
51987;SDS011;38003;52.012;4.346;2023-03-21T06:40:58;78.77;;;73.83;;
51987;SDS011;38003;52.012;4.346;2023-03-21T06:43:31;70.23;;;66.23;;
51987;SDS011;38003;52.012;4.346;2023-03-21T06:45:59;78.20;;;73.70;;
51987;SDS011;38003;52.012;4.346;2023-03-21T06:48:27;82.90;;;78.37;;
51987;SDS011;38003;52.012;4.346;2023-03-21T06:50:56;93.17;;;88.20;;
51987;SDS011;38003;52.012;4.346;2023-03-21T06:53:24;96.80;;;91.43;;
51987;SDS011;38003;52.012;4.346;2023-03-21T06:55:53;97.27;;;92.03;;
51987;SDS011;38003;52.012;4.346;2023-03-21T06:58:21;109.67;;;103.63;;
51987;SDS011;38003;52.012;4.346;2023-03-21T07:00:51;121.13;;;114.83;;
51987;SDS011;38003;52.012;4.346;2023-03-21T07:03:19;114.80;;;108.57;;
51987;SDS011;38003;52.012;4.346;2023-03-21T07:05:48;114.50;;;108.27;;
51987;SDS011;38003;52.012;4.346;2023-03-21T07:08:16;211.60;;;202.07;;
51987;SDS011;38003;52.012;4.346;2023-03-21T07:10:44;173.63;;;165.57;;
51987;SDS011;38003;52.012;4.346;2023-03-21T07:13:13;124.67;;;118.37;;
51987;SDS011;38003;52.012;4.346;2023-03-21T07:15:41;129.10;;;122.50;;
51987;SDS011;38003;52.012;4.346;2023-03-21T07:18:11;129.93;;;123.27;;
51987;SDS011;38003;52.012;4.346;2023-03-21T07:20:39;132.00;;;125.47;;
51987;SDS011;38003;52.012;4.346;2023-03-21T07:23:07;134.70;;;128.13;;
51987;SDS011;38003;52.012;4.346;2023-03-21T07:25:35;144.43;;;137.23;;
51987;SDS011;38003;52.012;4.346;2023-03-21T07:28:04;133.40;;;126.97;;
51987;SDS011;38003;52.012;4.346;2023-03-21T07:30:34;145.80;;;138.77;;
51987;SDS011;38003;52.012;4.346;2023-03-21T07:33:02;153.40;;;146.17;;
51987;SDS011;38003;52.012;4.346;2023-03-21T07:35:33;147.27;;;139.90;;
51987;SDS011;38003;52.012;4.346;2023-03-21T07:38:02;153.87;;;146.47;;
51987;SDS011;38003;52.012;4.346;2023-03-21T07:40:31;152.23;;;144.70;;
51987;SDS011;38003;52.012;4.346;2023-03-21T07:42:59;150.47;;;143.07;;
51987;SDS011;38003;52.012;4.346;2023-03-21T07:45:32;156.90;;;149.10;;
51987;SDS011;38003;52.012;4.346;2023-03-21T07:48:01;145.23;;;138.13;;
51987;SDS011;38003;52.012;4.346;2023-03-21T07:50:29;156.37;;;149.07;;
51987;SDS011;38003;52.012;4.346;2023-03-21T07:52:59;172.30;;;164.27;;
51987;SDS011;38003;52.012;4.346;2023-03-21T07:55:27;183.93;;;175.90;;
51987;SDS011;38003;52.012;4.346;2023-03-21T07:57:57;182.80;;;174.67;;
51987;SDS011;38003;52.012;4.346;2023-03-21T08:00:25;198.33;;;189.73;;
51987;SDS011;38003;52.012;4.346;2023-03-21T08:02:54;149.70;;;142.47;;
51987;SDS011;38003;52.012;4.346;2023-03-21T08:05:25;159.30;;;151.47;;
51987;SDS011;38003;52.012;4.346;2023-03-21T08:07:53;140.70;;;134.07;;
51987;SDS011;38003;52.012;4.346;2023-03-21T08:10:24;132.20;;;126.00;;
51987;SDS011;38003;52.012;4.346;2023-03-21T08:12:52;149.80;;;142.87;;
51987;SDS011;38003;52.012;4.346;2023-03-21T08:15:22;152.23;;;144.83;;
51987;SDS011;38003;52.012;4.346;2023-03-21T08:17:50;142.70;;;135.87;;
51987;SDS011;38003;52.012;4.346;2023-03-21T08:20:19;128.13;;;121.90;;
51987;SDS011;38003;52.012;4.346;2023-03-21T08:22:48;127.03;;;121.03;;
51987;SDS011;38003;52.012;4.346;2023-03-21T08:25:17;114.00;;;108.37;;
51987;SDS011;38003;52.012;4.346;2023-03-21T08:27:48;101.40;;;96.20;;
51987;SDS011;38003;52.012;4.346;2023-03-21T08:30:20;93.57;;;88.77;;
51987;SDS011;38003;52.012;4.346;2023-03-21T08:32:50;92.50;;;87.77;;
51987;SDS011;38003;52.012;4.346;2023-03-21T08:35:18;69.33;;;65.73;;
51987;SDS011;38003;52.012;4.346;2023-03-21T08:37:46;73.20;;;69.07;;
51987;SDS011;38003;52.012;4.346;2023-03-21T08:40:16;52.70;;;49.23;;
51987;SDS011;38003;52.012;4.346;2023-03-21T08:42:45;48.50;;;45.47;;
51987;SDS011;38003;52.012;4.346;2023-03-21T08:45:15;41.07;;;38.50;;
51987;SDS011;38003;52.012;4.346;2023-03-21T08:47:44;32.97;;;30.73;;
51987;SDS011;38003;52.012;4.346;2023-03-21T08:50:14;33.43;;;31.20;;
51987;SDS011;38003;52.012;4.346;2023-03-21T08:52:42;43.70;;;40.67;;
51987;SDS011;38003;52.012;4.346;2023-03-21T08:55:11;35.13;;;32.37;;
51987;SDS011;38003;52.012;4.346;2023-03-21T08:57:39;36.20;;;33.80;;
51987;SDS011;38003;52.012;4.346;2023-03-21T09:00:08;46.10;;;43.17;;
51987;SDS011;38003;52.012;4.346;2023-03-21T09:02:41;58.47;;;54.73;;
51987;SDS011;38003;52.012;4.346;2023-03-21T09:05:10;47.73;;;44.47;;
51987;SDS011;38003;52.012;4.346;2023-03-21T09:07:39;33.97;;;31.37;;
51987;SDS011;38003;52.012;4.346;2023-03-21T09:10:09;29.77;;;27.33;;
51987;SDS011;38003;52.012;4.346;2023-03-21T09:12:46;34.27;;;31.67;;
51987;SDS011;38003;52.012;4.346;2023-03-21T09:15:15;36.23;;;33.57;;
51987;SDS011;38003;52.012;4.346;2023-03-21T09:17:46;30.77;;;28.50;;
51987;SDS011;38003;52.012;4.346;2023-03-21T09:20:18;32.57;;;29.93;;
51987;SDS011;38003;52.012;4.346;2023-03-21T09:22:55;27.60;;;25.30;;
51987;SDS011;38003;52.012;4.346;2023-03-21T09:25:24;25.77;;;23.33;;
51987;SDS011;38003;52.012;4.346;2023-03-21T09:28:00;33.30;;;30.47;;
51987;SDS011;38003;52.012;4.346;2023-03-21T09:30:30;36.40;;;33.53;;
51987;SDS011;38003;52.012;4.346;2023-03-21T09:33:00;32.37;;;29.80;;
51987;SDS011;38003;52.012;4.346;2023-03-21T09:35:31;31.10;;;27.80;;
51987;SDS011;38003;52.012;4.346;2023-03-21T09:38:00;22.23;;;19.90;;
51987;SDS011;38003;52.012;4.346;2023-03-21T09:40:31;20.43;;;15.53;;
51987;SDS011;38003;52.012;4.346;2023-03-21T09:43:09;18.93;;;16.80;;
51987;SDS011;38003;52.012;4.346;2023-03-21T09:45:42;17.67;;;15.37;;
51987;SDS011;38003;52.012;4.346;2023-03-21T09:48:18;15.00;;;13.23;;
51987;SDS011;38003;52.012;4.346;2023-03-21T09:50:51;18.20;;;12.93;;
51987;SDS011;38003;52.012;4.346;2023-03-21T09:53:21;15.93;;;12.37;;
51987;SDS011;38003;52.012;4.346;2023-03-21T09:55:51;14.97;;;11.00;;
51987;SDS011;38003;52.012;4.346;2023-03-21T09:58:23;15.93;;;11.50;;
51987;SDS011;38003;52.012;4.346;2023-03-21T10:00:53;14.33;;;12.53;;
51987;SDS011;38003;52.012;4.346;2023-03-21T10:03:28;17.97;;;12.27;;
51987;SDS011;38003;52.012;4.346;2023-03-21T10:06:01;20.83;;;11.77;;
51987;SDS011;38003;52.012;4.346;2023-03-21T10:08:31;14.73;;;11.23;;
51987;SDS011;38003;52.012;4.346;2023-03-21T10:11:02;17.83;;;12.07;;
51987;SDS011;38003;52.012;4.346;2023-03-21T10:13:34;15.80;;;10.70;;
51987;SDS011;38003;52.012;4.346;2023-03-21T10:16:09;17.80;;;11.53;;
51987;SDS011;38003;52.012;4.346;2023-03-21T10:18:40;16.60;;;12.97;;
51987;SDS011;38003;52.012;4.346;2023-03-21T10:21:10;16.83;;;11.83;;
51987;SDS011;38003;52.012;4.346;2023-03-21T10:24:01;14.67;;;12.10;;
51987;SDS011;38003;52.012;4.346;2023-03-21T10:26:29;16.17;;;11.07;;
51987;SDS011;38003;52.012;4.346;2023-03-21T10:28:58;16.87;;;10.80;;
51987;SDS011;38003;52.012;4.346;2023-03-21T10:31:28;17.27;;;12.53;;
51987;SDS011;38003;52.012;4.346;2023-03-21T10:34:00;17.87;;;13.17;;
51987;SDS011;38003;52.012;4.346;2023-03-21T10:36:30;19.90;;;12.87;;
51987;SDS011;38003;52.012;4.346;2023-03-21T10:39:00;15.73;;;11.53;;
51987;SDS011;38003;52.012;4.346;2023-03-21T10:41:29;19.50;;;14.40;;
51987;SDS011;38003;52.012;4.346;2023-03-21T10:44:05;19.10;;;15.00;;
51987;SDS011;38003;52.012;4.346;2023-03-21T10:46:33;18.60;;;13.53;;
51987;SDS011;38003;52.012;4.346;2023-03-21T10:49:03;16.53;;;12.13;;
51987;SDS011;38003;52.012;4.346;2023-03-21T10:51:34;16.90;;;12.77;;
51987;SDS011;38003;52.012;4.346;2023-03-21T10:54:04;16.13;;;13.83;;
51987;SDS011;38003;52.012;4.346;2023-03-21T10:56:34;18.83;;;15.17;;
51987;SDS011;38003;52.012;4.346;2023-03-21T10:59:03;18.77;;;15.20;;
51987;SDS011;38003;52.012;4.346;2023-03-21T11:01:34;16.80;;;14.97;;
51987;SDS011;38003;52.012;4.346;2023-03-21T11:04:07;18.97;;;13.77;;
51987;SDS011;38003;52.012;4.346;2023-03-21T11:06:36;20.57;;;16.30;;
51987;SDS011;38003;52.012;4.346;2023-03-21T11:09:06;18.33;;;16.37;;
51987;SDS011;38003;52.012;4.346;2023-03-21T11:11:39;22.50;;;15.83;;
51987;SDS011;38003;52.012;4.346;2023-03-21T11:14:12;19.43;;;16.13;;
51987;SDS011;38003;52.012;4.346;2023-03-21T11:16:50;17.60;;;12.90;;
51987;SDS011;38003;52.012;4.346;2023-03-21T11:19:25;16.53;;;12.07;;
51987;SDS011;38003;52.012;4.346;2023-03-21T11:21:55;18.87;;;15.07;;
51987;SDS011;38003;52.012;4.346;2023-03-21T11:24:24;17.03;;;12.57;;
51987;SDS011;38003;52.012;4.346;2023-03-21T11:26:55;14.67;;;11.57;;
51987;SDS011;38003;52.012;4.346;2023-03-21T11:29:26;12.37;;;9.77;;
51987;SDS011;38003;52.012;4.346;2023-03-21T11:31:59;13.73;;;10.63;;
51987;SDS011;38003;52.012;4.346;2023-03-21T11:34:31;14.67;;;9.67;;
51987;SDS011;38003;52.012;4.346;2023-03-21T11:37:01;14.60;;;8.80;;
51987;SDS011;38003;52.012;4.346;2023-03-21T11:39:31;12.93;;;8.07;;
51987;SDS011;38003;52.012;4.346;2023-03-21T11:41:59;10.43;;;6.70;;
51987;SDS011;38003;52.012;4.346;2023-03-21T11:44:29;12.93;;;7.63;;
51987;SDS011;38003;52.012;4.346;2023-03-21T11:46:58;11.13;;;5.67;;
51987;SDS011;38003;52.012;4.346;2023-03-21T11:49:26;9.33;;;5.13;;
51987;SDS011;38003;52.012;4.346;2023-03-21T11:54:53;11.43;;;5.83;;
51987;SDS011;38003;52.012;4.346;2023-03-21T11:57:27;9.83;;;6.10;;
51987;SDS011;38003;52.012;4.346;2023-03-21T11:59:58;10.67;;;7.00;;
51987;SDS011;38003;52.012;4.346;2023-03-21T12:02:38;10.53;;;6.50;;
51987;SDS011;38003;52.012;4.346;2023-03-21T12:05:09;10.90;;;6.80;;
51987;SDS011;38003;52.012;4.346;2023-03-21T12:07:45;10.90;;;6.60;;
51987;SDS011;38003;52.012;4.346;2023-03-21T12:10:25;16.43;;;7.53;;
51987;SDS011;38003;52.012;4.346;2023-03-21T12:12:57;11.80;;;7.27;;
51987;SDS011;38003;52.012;4.346;2023-03-21T12:15:30;12.27;;;6.33;;
51987;SDS011;38003;52.012;4.346;2023-03-21T12:18:04;10.70;;;6.60;;
51987;SDS011;38003;52.012;4.346;2023-03-21T12:20:36;11.17;;;6.60;;
51987;SDS011;38003;52.012;4.346;2023-03-21T12:23:15;14.20;;;7.43;;
51987;SDS011;38003;52.012;4.346;2023-03-21T12:25:51;11.63;;;7.10;;
51987;SDS011;38003;52.012;4.346;2023-03-21T12:28:24;9.70;;;6.67;;
51987;SDS011;38003;52.012;4.346;2023-03-21T12:31:00;10.07;;;6.50;;
51987;SDS011;38003;52.012;4.346;2023-03-21T12:33:37;9.63;;;6.67;;
51987;SDS011;38003;52.012;4.346;2023-03-21T12:36:12;9.27;;;5.63;;
51987;SDS011;38003;52.012;4.346;2023-03-21T12:38:48;9.60;;;6.27;;
51987;SDS011;38003;52.012;4.346;2023-03-21T12:41:23;11.70;;;6.83;;
51987;SDS011;38003;52.012;4.346;2023-03-21T12:43:53;10.27;;;6.90;;
51987;SDS011;38003;52.012;4.346;2023-03-21T12:46:23;9.03;;;6.60;;
51987;SDS011;38003;52.012;4.346;2023-03-21T12:48:54;9.60;;;5.83;;
51987;SDS011;38003;52.012;4.346;2023-03-21T12:51:25;12.43;;;6.77;;
51987;SDS011;38003;52.012;4.346;2023-03-21T12:54:02;9.80;;;6.00;;
51987;SDS011;38003;52.012;4.346;2023-03-21T12:56:36;9.07;;;5.80;;
51987;SDS011;38003;52.012;4.346;2023-03-21T12:59:07;7.47;;;5.20;;
51987;SDS011;38003;52.012;4.346;2023-03-21T13:01:39;10.43;;;6.47;;
51987;SDS011;38003;52.012;4.346;2023-03-21T13:04:15;7.73;;;5.60;;
51987;SDS011;38003;52.012;4.346;2023-03-21T13:06:49;12.93;;;6.93;;
51987;SDS011;38003;52.012;4.346;2023-03-21T13:09:20;12.07;;;6.50;;
51987;SDS011;38003;52.012;4.346;2023-03-21T13:12:05;9.50;;;6.73;;
51987;SDS011;38003;52.012;4.346;2023-03-21T13:14:37;12.03;;;6.30;;
51987;SDS011;38003;52.012;4.346;2023-03-21T13:17:09;10.57;;;7.03;;
51987;SDS011;38003;52.012;4.346;2023-03-21T13:19:41;9.53;;;6.43;;
51987;SDS011;38003;52.012;4.346;2023-03-21T13:22:12;10.37;;;6.57;;
51987;SDS011;38003;52.012;4.346;2023-03-21T13:24:46;10.80;;;7.10;;
51987;SDS011;38003;52.012;4.346;2023-03-21T13:27:17;11.10;;;7.20;;
51987;SDS011;38003;52.012;4.346;2023-03-21T13:29:50;8.93;;;6.40;;
51987;SDS011;38003;52.012;4.346;2023-03-21T13:32:22;11.63;;;7.50;;
51987;SDS011;38003;52.012;4.346;2023-03-21T13:34:55;10.97;;;6.73;;
51987;SDS011;38003;52.012;4.346;2023-03-21T13:37:25;9.17;;;6.40;;
51987;SDS011;38003;52.012;4.346;2023-03-21T13:39:59;10.57;;;6.67;;
51987;SDS011;38003;52.012;4.346;2023-03-21T13:42:31;10.20;;;6.90;;
51987;SDS011;38003;52.012;4.346;2023-03-21T13:45:00;12.80;;;6.47;;
51987;SDS011;38003;52.012;4.346;2023-03-21T13:47:39;13.10;;;6.50;;
51987;SDS011;38003;52.012;4.346;2023-03-21T13:50:24;10.57;;;6.80;;
51987;SDS011;38003;52.012;4.346;2023-03-21T13:55:42;9.17;;;5.70;;
51987;SDS011;38003;52.012;4.346;2023-03-21T13:58:30;9.17;;;6.07;;
51987;SDS011;38003;52.012;4.346;2023-03-21T14:03:46;8.67;;;6.33;;
51987;SDS011;38003;52.012;4.346;2023-03-21T14:06:15;8.33;;;6.37;;
51987;SDS011;38003;52.012;4.346;2023-03-21T14:08:46;11.73;;;6.17;;
51987;SDS011;38003;52.012;4.346;2023-03-21T14:11:16;10.40;;;6.33;;
51987;SDS011;38003;52.012;4.346;2023-03-21T14:13:47;10.27;;;6.63;;
51987;SDS011;38003;52.012;4.346;2023-03-21T14:16:17;8.37;;;6.67;;
51987;SDS011;38003;52.012;4.346;2023-03-21T14:18:46;12.90;;;6.57;;
51987;SDS011;38003;52.012;4.346;2023-03-21T14:21:21;9.73;;;6.93;;
51987;SDS011;38003;52.012;4.346;2023-03-21T14:23:59;11.40;;;6.47;;
51987;SDS011;38003;52.012;4.346;2023-03-21T14:26:29;9.03;;;6.00;;
51987;SDS011;38003;52.012;4.346;2023-03-21T14:28:59;9.33;;;6.27;;
51987;SDS011;38003;52.012;4.346;2023-03-21T14:31:30;9.00;;;5.53;;
51987;SDS011;38003;52.012;4.346;2023-03-21T14:34:00;6.93;;;5.63;;
51987;SDS011;38003;52.012;4.346;2023-03-21T14:36:29;7.70;;;6.73;;
51987;SDS011;38003;52.012;4.346;2023-03-21T14:39:04;10.63;;;6.33;;
51987;SDS011;38003;52.012;4.346;2023-03-21T14:41:34;6.90;;;6.20;;
51987;SDS011;38003;52.012;4.346;2023-03-21T14:44:13;9.43;;;6.47;;
51987;SDS011;38003;52.012;4.346;2023-03-21T14:46:42;6.23;;;5.57;;
51987;SDS011;38003;52.012;4.346;2023-03-21T14:49:11;5.80;;;5.23;;
51987;SDS011;38003;52.012;4.346;2023-03-21T14:51:39;9.47;;;5.60;;
51987;SDS011;38003;52.012;4.346;2023-03-21T14:54:10;6.40;;;5.80;;